sensor_id;sensor_type;location;lat;lon;timestamp;P1;durP1;ratioP1;P2;durP2;ratioP2
12687;SDS011;6408;59.388;17.798;2024-03-23T00:55:41;7.57;;;1.97;;
12687;SDS011;6408;59.388;17.798;2024-03-23T00:58:07;6.60;;;2.03;;
12687;SDS011;6408;59.388;17.798;2024-03-23T01:00:34;5.63;;;1.90;;
12687;SDS011;6408;59.388;17.798;2024-03-23T01:03:00;10.07;;;2.07;;
12687;SDS011;6408;59.388;17.798;2024-03-23T01:05:29;10.60;;;2.47;;
12687;SDS011;6408;59.388;17.798;2024-03-23T01:07:55;8.13;;;2.20;;
12687;SDS011;6408;59.388;17.798;2024-03-23T01:10:22;5.07;;;1.70;;
12687;SDS011;6408;59.388;17.798;2024-03-23T01:12:48;6.50;;;2.00;;
12687;SDS011;6408;59.388;17.798;2024-03-23T01:15:16;10.67;;;2.77;;
12687;SDS011;6408;59.388;17.798;2024-03-23T01:17:42;7.23;;;2.20;;
12687;SDS011;6408;59.388;17.798;2024-03-23T01:20:10;5.20;;;1.60;;
12687;SDS011;6408;59.388;17.798;2024-03-23T01:22:38;7.23;;;2.13;;
12687;SDS011;6408;59.388;17.798;2024-03-23T01:25:05;5.90;;;1.70;;
12687;SDS011;6408;59.388;17.798;2024-03-23T01:27:32;8.33;;;1.57;;
12687;SDS011;6408;59.388;17.798;2024-03-23T01:30:00;8.13;;;1.90;;
12687;SDS011;6408;59.388;17.798;2024-03-23T01:32:26;8.60;;;1.90;;
12687;SDS011;6408;59.388;17.798;2024-03-23T01:34:54;7.30;;;2.00;;
12687;SDS011;6408;59.388;17.798;2024-03-23T01:37:20;8.97;;;1.90;;
12687;SDS011;6408;59.388;17.798;2024-03-23T01:39:51;7.83;;;2.20;;
12687;SDS011;6408;59.388;17.798;2024-03-23T01:42:17;9.23;;;1.67;;
12687;SDS011;6408;59.388;17.798;2024-03-23T01:44:45;5.53;;;2.03;;
12687;SDS011;6408;59.388;17.798;2024-03-23T01:47:11;9.07;;;2.27;;
12687;SDS011;6408;59.388;17.798;2024-03-23T01:49:39;9.37;;;1.80;;
12687;SDS011;6408;59.388;17.798;2024-03-23T01:52:06;9.57;;;1.90;;
12687;SDS011;6408;59.388;17.798;2024-03-23T01:54:33;8.47;;;2.20;;
12687;SDS011;6408;59.388;17.798;2024-03-23T01:57:01;7.00;;;1.97;;
12687;SDS011;6408;59.388;17.798;2024-03-23T01:59:28;4.97;;;1.57;;
12687;SDS011;6408;59.388;17.798;2024-03-23T02:01:54;6.93;;;1.73;;
12687;SDS011;6408;59.388;17.798;2024-03-23T02:04:21;8.17;;;2.07;;
12687;SDS011;6408;59.388;17.798;2024-03-23T02:06:47;6.77;;;1.37;;
12687;SDS011;6408;59.388;17.798;2024-03-23T02:09:15;10.43;;;2.00;;
12687;SDS011;6408;59.388;17.798;2024-03-23T02:11:41;9.23;;;1.97;;
12687;SDS011;6408;59.388;17.798;2024-03-23T02:14:09;6.83;;;1.47;;
12687;SDS011;6408;59.388;17.798;2024-03-23T02:16:35;7.17;;;1.70;;
12687;SDS011;6408;59.388;17.798;2024-03-23T02:19:02;5.67;;;1.93;;
12687;SDS011;6408;59.388;17.798;2024-03-23T02:21:28;7.10;;;2.10;;
12687;SDS011;6408;59.388;17.798;2024-03-23T02:24:01;6.73;;;1.93;;
12687;SDS011;6408;59.388;17.798;2024-03-23T02:26:28;5.83;;;1.77;;
12687;SDS011;6408;59.388;17.798;2024-03-23T02:28:55;10.60;;;2.37;;
12687;SDS011;6408;59.388;17.798;2024-03-23T02:31:22;7.17;;;1.77;;
12687;SDS011;6408;59.388;17.798;2024-03-23T02:33:49;6.90;;;1.80;;
12687;SDS011;6408;59.388;17.798;2024-03-23T02:36:18;8.33;;;1.80;;
12687;SDS011;6408;59.388;17.798;2024-03-23T02:38:46;6.63;;;1.70;;
12687;SDS011;6408;59.388;17.798;2024-03-23T02:41:13;6.07;;;1.70;;
12687;SDS011;6408;59.388;17.798;2024-03-23T02:43:48;6.27;;;1.50;;
12687;SDS011;6408;59.388;17.798;2024-03-23T02:46:14;8.73;;;2.07;;
12687;SDS011;6408;59.388;17.798;2024-03-23T02:48:41;9.40;;;2.07;;
12687;SDS011;6408;59.388;17.798;2024-03-23T02:51:16;8.67;;;2.10;;
12687;SDS011;6408;59.388;17.798;2024-03-23T02:53:44;5.47;;;2.23;;
12687;SDS011;6408;59.388;17.798;2024-03-23T02:56:10;4.33;;;1.50;;
12687;SDS011;6408;59.388;17.798;2024-03-23T02:58:42;7.53;;;1.97;;
12687;SDS011;6408;59.388;17.798;2024-03-23T03:01:08;10.20;;;2.30;;
12687;SDS011;6408;59.388;17.798;2024-03-23T03:03:36;7.57;;;1.77;;
12687;SDS011;6408;59.388;17.798;2024-03-23T03:06:03;7.70;;;1.83;;
12687;SDS011;6408;59.388;17.798;2024-03-23T03:08:30;8.30;;;1.77;;
12687;SDS011;6408;59.388;17.798;2024-03-23T03:10:56;6.83;;;2.00;;
12687;SDS011;6408;59.388;17.798;2024-03-23T03:13:23;6.90;;;1.67;;
12687;SDS011;6408;59.388;17.798;2024-03-23T03:15:51;8.87;;;2.40;;
12687;SDS011;6408;59.388;17.798;2024-03-23T03:18:18;8.77;;;2.20;;
12687;SDS011;6408;59.388;17.798;2024-03-23T03:20:44;15.60;;;2.67;;
12687;SDS011;6408;59.388;17.798;2024-03-23T03:23:12;8.93;;;2.03;;
12687;SDS011;6408;59.388;17.798;2024-03-23T03:25:40;6.73;;;2.33;;
12687;SDS011;6408;59.388;17.798;2024-03-23T03:28:07;6.90;;;1.60;;
12687;SDS011;6408;59.388;17.798;2024-03-23T03:30:33;12.47;;;2.60;;
12687;SDS011;6408;59.388;17.798;2024-03-23T03:33:02;9.90;;;2.17;;
12687;SDS011;6408;59.388;17.798;2024-03-23T03:35:28;9.33;;;2.17;;
12687;SDS011;6408;59.388;17.798;2024-03-23T03:37:55;12.27;;;2.40;;
12687;SDS011;6408;59.388;17.798;2024-03-23T03:40:21;7.87;;;2.23;;
12687;SDS011;6408;59.388;17.798;2024-03-23T03:42:49;11.00;;;2.37;;
12687;SDS011;6408;59.388;17.798;2024-03-23T03:45:15;8.53;;;2.53;;
12687;SDS011;6408;59.388;17.798;2024-03-23T03:47:43;6.77;;;1.90;;
12687;SDS011;6408;59.388;17.798;2024-03-23T03:50:11;9.67;;;1.90;;
12687;SDS011;6408;59.388;17.798;2024-03-23T03:52:38;7.10;;;2.63;;
12687;SDS011;6408;59.388;17.798;2024-03-23T03:55:06;9.77;;;2.47;;
12687;SDS011;6408;59.388;17.798;2024-03-23T03:57:39;6.93;;;2.03;;
12687;SDS011;6408;59.388;17.798;2024-03-23T04:00:06;10.33;;;2.33;;
12687;SDS011;6408;59.388;17.798;2024-03-23T04:02:36;10.97;;;2.27;;
12687;SDS011;6408;59.388;17.798;2024-03-23T04:05:02;6.17;;;1.80;;
12687;SDS011;6408;59.388;17.798;2024-03-23T04:07:33;5.87;;;2.30;;
12687;SDS011;6408;59.388;17.798;2024-03-23T04:09:59;8.73;;;2.00;;
12687;SDS011;6408;59.388;17.798;2024-03-23T04:12:26;10.97;;;2.37;;
12687;SDS011;6408;59.388;17.798;2024-03-23T04:14:52;9.77;;;2.77;;
12687;SDS011;6408;59.388;17.798;2024-03-23T04:17:19;9.33;;;2.27;;
12687;SDS011;6408;59.388;17.798;2024-03-23T04:19:46;7.07;;;1.87;;
12687;SDS011;6408;59.388;17.798;2024-03-23T04:22:14;11.07;;;2.00;;
12687;SDS011;6408;59.388;17.798;2024-03-23T04:24:41;8.47;;;2.20;;
12687;SDS011;6408;59.388;17.798;2024-03-23T04:27:08;9.63;;;2.53;;
12687;SDS011;6408;59.388;17.798;2024-03-23T04:29:34;10.87;;;2.57;;
12687;SDS011;6408;59.388;17.798;2024-03-23T04:32:03;9.23;;;2.10;;
12687;SDS011;6408;59.388;17.798;2024-03-23T04:37:16;8.77;;;2.10;;
12687;SDS011;6408;59.388;17.798;2024-03-23T04:39:44;10.50;;;2.13;;
12687;SDS011;6408;59.388;17.798;2024-03-23T04:42:11;11.00;;;2.43;;
12687;SDS011;6408;59.388;17.798;2024-03-23T04:44:40;8.63;;;1.90;;
12687;SDS011;6408;59.388;17.798;2024-03-23T04:47:08;9.73;;;2.53;;
12687;SDS011;6408;59.388;17.798;2024-03-23T04:49:36;10.77;;;2.93;;
12687;SDS011;6408;59.388;17.798;2024-03-23T04:52:06;10.00;;;2.00;;
12687;SDS011;6408;59.388;17.798;2024-03-23T04:54:33;8.03;;;2.23;;
12687;SDS011;6408;59.388;17.798;2024-03-23T04:57:11;12.07;;;2.17;;
12687;SDS011;6408;59.388;17.798;2024-03-23T04:59:38;11.37;;;2.60;;
12687;SDS011;6408;59.388;17.798;2024-03-23T05:02:04;12.23;;;2.87;;
12687;SDS011;6408;59.388;17.798;2024-03-23T05:04:31;12.00;;;2.40;;
12687;SDS011;6408;59.388;17.798;2024-03-23T05:06:58;11.67;;;2.73;;
12687;SDS011;6408;59.388;17.798;2024-03-23T05:09:25;18.97;;;2.67;;
12687;SDS011;6408;59.388;17.798;2024-03-23T05:11:55;12.17;;;2.30;;
12687;SDS011;6408;59.388;17.798;2024-03-23T05:14:35;11.30;;;2.10;;
12687;SDS011;6408;59.388;17.798;2024-03-23T05:17:02;8.30;;;2.13;;
12687;SDS011;6408;59.388;17.798;2024-03-23T05:19:32;11.33;;;2.07;;
12687;SDS011;6408;59.388;17.798;2024-03-23T05:21:58;13.17;;;2.70;;
12687;SDS011;6408;59.388;17.798;2024-03-23T05:24:28;11.37;;;2.43;;
12687;SDS011;6408;59.388;17.798;2024-03-23T05:26:54;8.17;;;2.37;;
12687;SDS011;6408;59.388;17.798;2024-03-23T05:29:24;12.07;;;2.43;;
12687;SDS011;6408;59.388;17.798;2024-03-23T05:31:52;7.40;;;2.03;;
12687;SDS011;6408;59.388;17.798;2024-03-23T05:37:02;7.47;;;2.10;;
12687;SDS011;6408;59.388;17.798;2024-03-23T05:39:29;10.47;;;2.13;;
12687;SDS011;6408;59.388;17.798;2024-03-23T05:41:56;9.43;;;2.23;;
12687;SDS011;6408;59.388;17.798;2024-03-23T05:44:23;10.27;;;2.33;;
12687;SDS011;6408;59.388;17.798;2024-03-23T05:46:49;7.60;;;2.00;;
12687;SDS011;6408;59.388;17.798;2024-03-23T05:49:18;8.20;;;2.10;;
12687;SDS011;6408;59.388;17.798;2024-03-23T05:51:44;10.80;;;2.93;;
12687;SDS011;6408;59.388;17.798;2024-03-23T05:54:11;7.47;;;2.00;;
12687;SDS011;6408;59.388;17.798;2024-03-23T05:56:40;10.13;;;1.93;;
12687;SDS011;6408;59.388;17.798;2024-03-23T05:59:07;9.93;;;2.27;;
12687;SDS011;6408;59.388;17.798;2024-03-23T06:01:34;15.50;;;3.07;;
12687;SDS011;6408;59.388;17.798;2024-03-23T06:04:03;14.47;;;2.73;;
12687;SDS011;6408;59.388;17.798;2024-03-23T06:06:29;9.00;;;2.37;;
12687;SDS011;6408;59.388;17.798;2024-03-23T06:11:54;6.47;;;2.00;;
12687;SDS011;6408;59.388;17.798;2024-03-23T06:14:24;9.00;;;2.10;;
12687;SDS011;6408;59.388;17.798;2024-03-23T06:16:53;8.03;;;2.33;;
12687;SDS011;6408;59.388;17.798;2024-03-23T06:19:25;10.37;;;2.60;;
12687;SDS011;6408;59.388;17.798;2024-03-23T06:21:52;10.10;;;2.50;;
12687;SDS011;6408;59.388;17.798;2024-03-23T06:24:23;10.93;;;2.50;;
12687;SDS011;6408;59.388;17.798;2024-03-23T06:26:50;13.17;;;2.13;;
12687;SDS011;6408;59.388;17.798;2024-03-23T06:29:26;10.17;;;2.70;;
12687;SDS011;6408;59.388;17.798;2024-03-23T06:31:53;9.80;;;2.50;;
12687;SDS011;6408;59.388;17.798;2024-03-23T06:37:18;9.87;;;2.37;;
12687;SDS011;6408;59.388;17.798;2024-03-23T06:39:45;10.37;;;2.53;;
12687;SDS011;6408;59.388;17.798;2024-03-23T06:42:12;9.90;;;2.20;;
12687;SDS011;6408;59.388;17.798;2024-03-23T06:44:41;13.33;;;2.80;;
12687;SDS011;6408;59.388;17.798;2024-03-23T06:47:07;8.37;;;2.27;;
12687;SDS011;6408;59.388;17.798;2024-03-23T06:49:37;11.47;;;2.80;;
12687;SDS011;6408;59.388;17.798;2024-03-23T06:52:03;13.57;;;2.53;;
12687;SDS011;6408;59.388;17.798;2024-03-23T06:54:32;11.80;;;2.73;;
12687;SDS011;6408;59.388;17.798;2024-03-23T06:56:59;8.93;;;2.40;;
12687;SDS011;6408;59.388;17.798;2024-03-23T06:59:26;12.73;;;2.57;;
12687;SDS011;6408;59.388;17.798;2024-03-23T07:01:53;10.00;;;2.23;;
12687;SDS011;6408;59.388;17.798;2024-03-23T07:04:21;10.87;;;2.57;;
12687;SDS011;6408;59.388;17.798;2024-03-23T07:06:47;8.73;;;2.30;;
12687;SDS011;6408;59.388;17.798;2024-03-23T07:09:14;12.07;;;2.37;;
12687;SDS011;6408;59.388;17.798;2024-03-23T07:11:43;8.33;;;2.47;;
12687;SDS011;6408;59.388;17.798;2024-03-23T07:14:11;10.10;;;2.30;;
12687;SDS011;6408;59.388;17.798;2024-03-23T07:16:40;7.87;;;2.20;;
12687;SDS011;6408;59.388;17.798;2024-03-23T07:19:10;11.40;;;2.87;;
12687;SDS011;6408;59.388;17.798;2024-03-23T07:21:36;8.63;;;2.30;;
12687;SDS011;6408;59.388;17.798;2024-03-23T07:24:03;9.63;;;2.40;;
12687;SDS011;6408;59.388;17.798;2024-03-23T07:26:29;12.67;;;2.40;;
12687;SDS011;6408;59.388;17.798;2024-03-23T07:28:58;10.83;;;2.70;;
12687;SDS011;6408;59.388;17.798;2024-03-23T07:31:24;9.87;;;2.10;;
12687;SDS011;6408;59.388;17.798;2024-03-23T07:33:51;13.97;;;2.83;;
12687;SDS011;6408;59.388;17.798;2024-03-23T07:36:17;12.23;;;3.07;;
12687;SDS011;6408;59.388;17.798;2024-03-23T07:38:44;16.37;;;3.30;;
12687;SDS011;6408;59.388;17.798;2024-03-23T07:41:11;11.60;;;2.90;;
12687;SDS011;6408;59.388;17.798;2024-03-23T07:43:42;16.47;;;2.63;;
12687;SDS011;6408;59.388;17.798;2024-03-23T07:46:12;11.63;;;3.00;;
12687;SDS011;6408;59.388;17.798;2024-03-23T07:48:40;13.07;;;2.57;;
12687;SDS011;6408;59.388;17.798;2024-03-23T07:51:08;11.50;;;2.50;;
12687;SDS011;6408;59.388;17.798;2024-03-23T07:53:36;10.00;;;2.07;;
12687;SDS011;6408;59.388;17.798;2024-03-23T07:56:03;11.43;;;2.70;;
12687;SDS011;6408;59.388;17.798;2024-03-23T07:58:33;11.90;;;2.87;;
12687;SDS011;6408;59.388;17.798;2024-03-23T08:01:05;12.30;;;3.00;;
12687;SDS011;6408;59.388;17.798;2024-03-23T08:03:35;15.10;;;2.67;;
12687;SDS011;6408;59.388;17.798;2024-03-23T08:08:52;12.10;;;3.23;;
12687;SDS011;6408;59.388;17.798;2024-03-23T08:11:24;12.13;;;2.80;;
12687;SDS011;6408;59.388;17.798;2024-03-23T08:13:52;11.13;;;2.83;;
12687;SDS011;6408;59.388;17.798;2024-03-23T08:16:18;9.63;;;2.70;;
12687;SDS011;6408;59.388;17.798;2024-03-23T08:18:47;10.67;;;2.43;;
12687;SDS011;6408;59.388;17.798;2024-03-23T08:21:14;8.60;;;1.93;;
12687;SDS011;6408;59.388;17.798;2024-03-23T08:23:41;9.30;;;2.70;;
12687;SDS011;6408;59.388;17.798;2024-03-23T08:26:07;7.87;;;2.70;;
12687;SDS011;6408;59.388;17.798;2024-03-23T08:28:35;15.17;;;3.03;;
12687;SDS011;6408;59.388;17.798;2024-03-23T08:31:04;8.67;;;2.40;;
12687;SDS011;6408;59.388;17.798;2024-03-23T08:33:35;9.97;;;2.80;;
12687;SDS011;6408;59.388;17.798;2024-03-23T08:36:11;12.90;;;3.20;;
12687;SDS011;6408;59.388;17.798;2024-03-23T08:38:39;11.17;;;2.10;;
12687;SDS011;6408;59.388;17.798;2024-03-23T08:41:05;10.50;;;2.87;;
12687;SDS011;6408;59.388;17.798;2024-03-23T08:43:35;17.00;;;3.33;;
12687;SDS011;6408;59.388;17.798;2024-03-23T08:46:07;10.53;;;2.40;;
12687;SDS011;6408;59.388;17.798;2024-03-23T08:48:46;10.57;;;2.63;;
12687;SDS011;6408;59.388;17.798;2024-03-23T08:51:16;13.03;;;2.77;;
12687;SDS011;6408;59.388;17.798;2024-03-23T08:53:56;9.07;;;2.00;;
12687;SDS011;6408;59.388;17.798;2024-03-23T08:56:22;6.33;;;1.90;;
12687;SDS011;6408;59.388;17.798;2024-03-23T08:58:51;8.03;;;2.47;;
12687;SDS011;6408;59.388;17.798;2024-03-23T09:01:20;10.73;;;2.37;;
12687;SDS011;6408;59.388;17.798;2024-03-23T09:03:48;11.00;;;2.40;;
12687;SDS011;6408;59.388;17.798;2024-03-23T09:06:19;11.30;;;2.60;;
12687;SDS011;6408;59.388;17.798;2024-03-23T09:08:47;8.70;;;2.20;;
12687;SDS011;6408;59.388;17.798;2024-03-23T09:11:17;12.13;;;2.60;;
12687;SDS011;6408;59.388;17.798;2024-03-23T09:13:45;8.47;;;2.43;;
12687;SDS011;6408;59.388;17.798;2024-03-23T09:16:12;7.63;;;2.27;;
12687;SDS011;6408;59.388;17.798;2024-03-23T09:18:39;11.00;;;2.80;;
12687;SDS011;6408;59.388;17.798;2024-03-23T09:21:10;9.30;;;2.33;;
12687;SDS011;6408;59.388;17.798;2024-03-23T09:23:42;7.90;;;2.73;;
12687;SDS011;6408;59.388;17.798;2024-03-23T09:26:08;13.05;;;3.08;;
12687;SDS011;6408;59.388;17.798;2024-03-23T09:28:36;12.10;;;2.70;;
12687;SDS011;6408;59.388;17.798;2024-03-23T09:31:04;8.97;;;2.40;;
12687;SDS011;6408;59.388;17.798;2024-03-23T09:33:32;10.87;;;2.80;;
12687;SDS011;6408;59.388;17.798;2024-03-23T09:36:02;9.33;;;2.20;;
12687;SDS011;6408;59.388;17.798;2024-03-23T09:38:29;10.80;;;2.57;;
12687;SDS011;6408;59.388;17.798;2024-03-23T09:40:58;10.90;;;2.67;;
12687;SDS011;6408;59.388;17.798;2024-03-23T09:43:25;11.07;;;3.03;;
12687;SDS011;6408;59.388;17.798;2024-03-23T09:45:51;9.37;;;2.10;;
12687;SDS011;6408;59.388;17.798;2024-03-23T09:48:19;11.30;;;2.93;;
12687;SDS011;6408;59.388;17.798;2024-03-23T09:50:45;12.23;;;2.30;;
12687;SDS011;6408;59.388;17.798;2024-03-23T09:53:14;9.47;;;2.67;;
12687;SDS011;6408;59.388;17.798;2024-03-23T09:55:40;10.43;;;2.70;;
12687;SDS011;6408;59.388;17.798;2024-03-23T09:58:11;10.70;;;2.30;;
12687;SDS011;6408;59.388;17.798;2024-03-23T10:00:38;10.53;;;2.47;;
12687;SDS011;6408;59.388;17.798;2024-03-23T10:03:06;12.90;;;2.60;;
12687;SDS011;6408;59.388;17.798;2024-03-23T10:05:32;11.87;;;2.50;;
12687;SDS011;6408;59.388;17.798;2024-03-23T10:08:00;8.93;;;2.40;;
12687;SDS011;6408;59.388;17.798;2024-03-23T10:10:42;11.40;;;2.70;;
12687;SDS011;6408;59.388;17.798;2024-03-23T10:13:09;12.87;;;2.97;;
12687;SDS011;6408;59.388;17.798;2024-03-23T10:15:48;10.03;;;1.80;;
12687;SDS011;6408;59.388;17.798;2024-03-23T10:18:22;12.90;;;2.60;;
12687;SDS011;6408;59.388;17.798;2024-03-23T10:20:50;12.23;;;2.30;;
12687;SDS011;6408;59.388;17.798;2024-03-23T10:23:19;11.23;;;2.67;;
12687;SDS011;6408;59.388;17.798;2024-03-23T10:25:45;8.90;;;2.40;;
12687;SDS011;6408;59.388;17.798;2024-03-23T10:28:14;9.23;;;2.40;;
12687;SDS011;6408;59.388;17.798;2024-03-23T10:30:40;8.40;;;2.47;;
12687;SDS011;6408;59.388;17.798;2024-03-23T10:33:08;10.07;;;2.80;;
12687;SDS011;6408;59.388;17.798;2024-03-23T10:35:36;9.47;;;2.40;;
12687;SDS011;6408;59.388;17.798;2024-03-23T10:38:04;8.63;;;2.37;;
12687;SDS011;6408;59.388;17.798;2024-03-23T10:40:33;10.30;;;2.37;;
12687;SDS011;6408;59.388;17.798;2024-03-23T10:43:08;7.37;;;2.40;;
12687;SDS011;6408;59.388;17.798;2024-03-23T10:45:35;11.80;;;2.53;;
12687;SDS011;6408;59.388;17.798;2024-03-23T10:48:03;6.47;;;1.87;;
12687;SDS011;6408;59.388;17.798;2024-03-23T10:50:29;12.37;;;2.73;;
12687;SDS011;6408;59.388;17.798;2024-03-23T10:52:57;9.40;;;1.97;;
12687;SDS011;6408;59.388;17.798;2024-03-23T10:55:24;9.57;;;2.13;;
12687;SDS011;6408;59.388;17.798;2024-03-23T10:57:54;7.27;;;2.60;;
12687;SDS011;6408;59.388;17.798;2024-03-23T11:00:21;10.40;;;1.83;;
12687;SDS011;6408;59.388;17.798;2024-03-23T11:02:50;9.57;;;2.87;;
12687;SDS011;6408;59.388;17.798;2024-03-23T11:05:29;7.63;;;2.43;;
12687;SDS011;6408;59.388;17.798;2024-03-23T11:07:57;9.97;;;2.47;;
12687;SDS011;6408;59.388;17.798;2024-03-23T11:10:26;6.27;;;1.97;;
12687;SDS011;6408;59.388;17.798;2024-03-23T11:12:55;5.97;;;1.93;;
12687;SDS011;6408;59.388;17.798;2024-03-23T11:15:22;9.80;;;2.50;;
12687;SDS011;6408;59.388;17.798;2024-03-23T11:18:04;8.57;;;2.30;;
12687;SDS011;6408;59.388;17.798;2024-03-23T11:20:33;6.83;;;2.33;;
12687;SDS011;6408;59.388;17.798;2024-03-23T11:23:02;6.17;;;1.97;;
12687;SDS011;6408;59.388;17.798;2024-03-23T11:25:30;10.37;;;2.40;;
12687;SDS011;6408;59.388;17.798;2024-03-23T11:27:57;7.20;;;2.80;;
12687;SDS011;6408;59.388;17.798;2024-03-23T11:30:36;10.00;;;2.70;;
12687;SDS011;6408;59.388;17.798;2024-03-23T11:33:05;7.13;;;1.90;;
12687;SDS011;6408;59.388;17.798;2024-03-23T11:35:34;10.57;;;2.40;;
12687;SDS011;6408;59.388;17.798;2024-03-23T11:38:04;10.10;;;2.50;;
12687;SDS011;6408;59.388;17.798;2024-03-23T11:40:31;8.73;;;2.07;;
12687;SDS011;6408;59.388;17.798;2024-03-23T11:42:59;4.77;;;1.90;;
12687;SDS011;6408;59.388;17.798;2024-03-23T11:45:26;10.57;;;2.50;;
12687;SDS011;6408;59.388;17.798;2024-03-23T11:48:08;8.20;;;2.27;;
12687;SDS011;6408;59.388;17.798;2024-03-23T11:50:37;6.57;;;2.30;;
12687;SDS011;6408;59.388;17.798;2024-03-23T11:53:14;9.23;;;2.47;;
12687;SDS011;6408;59.388;17.798;2024-03-23T11:55:43;6.53;;;2.20;;
12687;SDS011;6408;59.388;17.798;2024-03-23T11:58:11;6.70;;;2.30;;
12687;SDS011;6408;59.388;17.798;2024-03-23T12:00:39;9.60;;;2.37;;
12687;SDS011;6408;59.388;17.798;2024-03-23T12:03:05;7.73;;;1.90;;
12687;SDS011;6408;59.388;17.798;2024-03-23T12:05:35;4.67;;;2.20;;
12687;SDS011;6408;59.388;17.798;2024-03-23T12:10:52;6.87;;;2.23;;
12687;SDS011;6408;59.388;17.798;2024-03-23T12:13:29;8.03;;;2.27;;
12687;SDS011;6408;59.388;17.798;2024-03-23T12:15:59;8.10;;;2.10;;
12687;SDS011;6408;59.388;17.798;2024-03-23T12:18:36;9.40;;;2.00;;
12687;SDS011;6408;59.388;17.798;2024-03-23T12:21:04;6.93;;;2.07;;
12687;SDS011;6408;59.388;17.798;2024-03-23T12:23:31;8.43;;;1.83;;
12687;SDS011;6408;59.388;17.798;2024-03-23T12:25:58;8.33;;;2.37;;
12687;SDS011;6408;59.388;17.798;2024-03-23T12:28:24;7.37;;;2.00;;
12687;SDS011;6408;59.388;17.798;2024-03-23T12:30:52;9.73;;;2.17;;
12687;SDS011;6408;59.388;17.798;2024-03-23T12:33:19;6.73;;;1.93;;
12687;SDS011;6408;59.388;17.798;2024-03-23T12:35:48;6.40;;;1.57;;
12687;SDS011;6408;59.388;17.798;2024-03-23T12:38:14;8.37;;;2.40;;
12687;SDS011;6408;59.388;17.798;2024-03-23T12:40:41;5.57;;;2.13;;
12687;SDS011;6408;59.388;17.798;2024-03-23T12:43:07;7.50;;;2.03;;
12687;SDS011;6408;59.388;17.798;2024-03-23T12:45:34;9.53;;;2.17;;
12687;SDS011;6408;59.388;17.798;2024-03-23T12:48:00;4.37;;;1.70;;
12687;SDS011;6408;59.388;17.798;2024-03-23T12:50:27;6.93;;;1.70;;
12687;SDS011;6408;59.388;17.798;2024-03-23T12:52:55;7.53;;;2.20;;
12687;SDS011;6408;59.388;17.798;2024-03-23T12:55:22;7.07;;;1.83;;
12687;SDS011;6408;59.388;17.798;2024-03-23T12:57:48;7.53;;;2.57;;
12687;SDS011;6408;59.388;17.798;2024-03-23T13:00:17;6.93;;;2.07;;
12687;SDS011;6408;59.388;17.798;2024-03-23T13:02:43;6.27;;;2.00;;
12687;SDS011;6408;59.388;17.798;2024-03-23T13:05:11;9.23;;;2.10;;
12687;SDS011;6408;59.388;17.798;2024-03-23T13:07:37;8.13;;;2.27;;
12687;SDS011;6408;59.388;17.798;2024-03-23T13:10:06;6.33;;;2.03;;
12687;SDS011;6408;59.388;17.798;2024-03-23T13:12:33;5.70;;;2.20;;
12687;SDS011;6408;59.388;17.798;2024-03-23T13:15:04;4.87;;;1.50;;
12687;SDS011;6408;59.388;17.798;2024-03-23T13:17:30;6.70;;;2.20;;
12687;SDS011;6408;59.388;17.798;2024-03-23T13:19:58;6.40;;;1.67;;
12687;SDS011;6408;59.388;17.798;2024-03-23T13:22:24;7.33;;;1.87;;
12687;SDS011;6408;59.388;17.798;2024-03-23T13:24:52;6.60;;;1.90;;
12687;SDS011;6408;59.388;17.798;2024-03-23T13:27:20;5.87;;;1.93;;
12687;SDS011;6408;59.388;17.798;2024-03-23T13:29:47;5.53;;;1.63;;
12687;SDS011;6408;59.388;17.798;2024-03-23T13:32:13;3.23;;;1.53;;
12687;SDS011;6408;59.388;17.798;2024-03-23T13:34:40;3.23;;;1.30;;
12687;SDS011;6408;59.388;17.798;2024-03-23T13:37:06;4.10;;;1.20;;
12687;SDS011;6408;59.388;17.798;2024-03-23T13:39:35;5.37;;;1.87;;
12687;SDS011;6408;59.388;17.798;2024-03-23T13:42:01;5.63;;;1.50;;
12687;SDS011;6408;59.388;17.798;2024-03-23T13:44:30;3.47;;;2.00;;
12687;SDS011;6408;59.388;17.798;2024-03-23T13:46:56;6.73;;;1.63;;
12687;SDS011;6408;59.388;17.798;2024-03-23T13:49:25;3.90;;;1.20;;
12687;SDS011;6408;59.388;17.798;2024-03-23T13:51:51;3.30;;;1.03;;
12687;SDS011;6408;59.388;17.798;2024-03-23T13:54:19;5.27;;;1.33;;
12687;SDS011;6408;59.388;17.798;2024-03-23T13:56:46;4.67;;;1.87;;
12687;SDS011;6408;59.388;17.798;2024-03-23T13:59:15;2.40;;;1.07;;
12687;SDS011;6408;59.388;17.798;2024-03-23T14:01:44;5.87;;;1.30;;
12687;SDS011;6408;59.388;17.798;2024-03-23T14:04:12;2.73;;;1.50;;
12687;SDS011;6408;59.388;17.798;2024-03-23T14:06:38;1.90;;;0.90;;
12687;SDS011;6408;59.388;17.798;2024-03-23T14:09:05;2.27;;;1.00;;
12687;SDS011;6408;59.388;17.798;2024-03-23T14:11:34;3.17;;;1.00;;
12687;SDS011;6408;59.388;17.798;2024-03-23T14:14:01;3.63;;;1.47;;
12687;SDS011;6408;59.388;17.798;2024-03-23T14:16:28;4.13;;;1.33;;
12687;SDS011;6408;59.388;17.798;2024-03-23T14:18:58;3.77;;;1.47;;
12687;SDS011;6408;59.388;17.798;2024-03-23T14:21:24;5.47;;;1.47;;
12687;SDS011;6408;59.388;17.798;2024-03-23T14:23:53;4.67;;;1.50;;
12687;SDS011;6408;59.388;17.798;2024-03-23T14:26:20;4.27;;;1.47;;
12687;SDS011;6408;59.388;17.798;2024-03-23T14:28:50;1.87;;;0.90;;
12687;SDS011;6408;59.388;17.798;2024-03-23T14:31:16;3.37;;;1.10;;
12687;SDS011;6408;59.388;17.798;2024-03-23T14:33:43;4.07;;;1.23;;
12687;SDS011;6408;59.388;17.798;2024-03-23T14:36:13;4.53;;;1.47;;
12687;SDS011;6408;59.388;17.798;2024-03-23T14:38:41;4.53;;;1.40;;
12687;SDS011;6408;59.388;17.798;2024-03-23T14:41:07;4.83;;;1.27;;
12687;SDS011;6408;59.388;17.798;2024-03-23T14:43:34;6.83;;;1.47;;
12687;SDS011;6408;59.388;17.798;2024-03-23T14:46:07;4.70;;;1.13;;
12687;SDS011;6408;59.388;17.798;2024-03-23T14:48:35;7.37;;;1.60;;
12687;SDS011;6408;59.388;17.798;2024-03-23T14:51:02;7.70;;;2.00;;
12687;SDS011;6408;59.388;17.798;2024-03-23T14:53:33;5.10;;;1.40;;
12687;SDS011;6408;59.388;17.798;2024-03-23T14:55:59;8.50;;;1.80;;
12687;SDS011;6408;59.388;17.798;2024-03-23T14:58:27;7.07;;;1.73;;
12687;SDS011;6408;59.388;17.798;2024-03-23T15:00:53;7.83;;;2.00;;
12687;SDS011;6408;59.388;17.798;2024-03-23T15:03:26;5.03;;;1.60;;
12687;SDS011;6408;59.388;17.798;2024-03-23T15:05:53;6.93;;;1.90;;
12687;SDS011;6408;59.388;17.798;2024-03-23T15:08:21;4.33;;;1.70;;
12687;SDS011;6408;59.388;17.798;2024-03-23T15:10:49;5.47;;;1.93;;
12687;SDS011;6408;59.388;17.798;2024-03-23T15:13:16;5.67;;;1.50;;
12687;SDS011;6408;59.388;17.798;2024-03-23T15:15:44;4.17;;;1.47;;
12687;SDS011;6408;59.388;17.798;2024-03-23T15:18:13;8.80;;;1.67;;
12687;SDS011;6408;59.388;17.798;2024-03-23T15:20:40;7.40;;;1.30;;
12687;SDS011;6408;59.388;17.798;2024-03-23T15:23:07;4.37;;;1.53;;
12687;SDS011;6408;59.388;17.798;2024-03-23T15:25:33;4.90;;;1.40;;
12687;SDS011;6408;59.388;17.798;2024-03-23T15:28:02;5.77;;;1.30;;
12687;SDS011;6408;59.388;17.798;2024-03-23T15:30:28;4.03;;;1.53;;
12687;SDS011;6408;59.388;17.798;2024-03-23T15:32:55;7.63;;;1.77;;
12687;SDS011;6408;59.388;17.798;2024-03-23T15:35:22;1.87;;;1.20;;
12687;SDS011;6408;59.388;17.798;2024-03-23T15:37:49;4.47;;;1.30;;
12687;SDS011;6408;59.388;17.798;2024-03-23T15:40:15;4.63;;;1.20;;
12687;SDS011;6408;59.388;17.798;2024-03-23T15:42:43;6.30;;;1.43;;
12687;SDS011;6408;59.388;17.798;2024-03-23T15:45:10;6.00;;;1.57;;
12687;SDS011;6408;59.388;17.798;2024-03-23T15:47:38;4.43;;;2.13;;
12687;SDS011;6408;59.388;17.798;2024-03-23T15:50:05;6.57;;;2.50;;
12687;SDS011;6408;59.388;17.798;2024-03-23T15:52:35;10.83;;;4.20;;
12687;SDS011;6408;59.388;17.798;2024-03-23T15:55:01;9.07;;;4.03;;
12687;SDS011;6408;59.388;17.798;2024-03-23T15:57:31;6.70;;;2.47;;
12687;SDS011;6408;59.388;17.798;2024-03-23T15:59:58;4.77;;;2.03;;